Time;durP1;ratioP1;P1;durP2;ratioP2;P2;SDS_P1;SDS_P2;PMS_P1;PMS_P2;Temp;Humidity;BMP_temperature;BMP_pressure;BME280_temperature;BME280_humidity;BME280_pressure;Samples;Min_cycle;Max_cycle;Signal;HPM_P1;HPM_P2
2021/09/08 00:00:33;;;;;;;12.17;11.00;;;;;22.90;100906.00;;;;2066304;28;20578;-55
2021/09/08 00:01:34;;;;;;;11.00;10.00;;;;;22.90;100900.00;;;;2073703;28;20657;-56
2021/09/08 00:02:34;;;;;;;11.57;10.40;;;;;22.90;100907.00;;;;2078222;28;20213;-57
2021/09/08 00:03:34;;;;;;;11.63;10.53;;;;;22.90;100901.00;;;;2070867;28;20724;-56
2021/09/08 00:04:35;;;;;;;11.07;10.07;;;;;22.90;100898.00;;;;2070789;28;20531;-56
2021/09/08 00:05:35;;;;;;;12.67;11.37;;;;;22.90;100904.00;;;;2070655;28;20217;-56
2021/09/08 00:06:36;;;;;;;11.37;10.37;;;;;22.80;100901.00;;;;2070806;28;20226;-55
2021/09/08 00:07:36;;;;;;;11.33;10.33;;;;;22.80;100898.00;;;;2070600;28;20593;-55
2021/09/08 00:08:36;;;;;;;10.90;9.90;;;;;22.90;100896.00;;;;2064017;28;20222;-55
2021/09/08 00:09:37;;;;;;;11.13;10.03;;;;;22.90;100899.00;;;;2061310;28;20244;-55
2021/09/08 00:10:37;;;;;;;10.77;9.77;;;;;22.90;100902.00;;;;2061580;28;20215;-55
2021/09/08 00:11:37;;;;;;;11.03;10.00;;;;;22.90;100904.00;;;;2062668;28;20581;-55
2021/09/08 00:12:38;;;;;;;10.77;9.80;;;;;22.90;100898.00;;;;2062909;28;20223;-55
2021/09/08 00:13:38;;;;;;;11.93;10.83;;;;;22.80;100912.00;;;;2062743;28;20238;-56
2021/09/08 00:14:40;;;;;;;11.07;9.87;;;;;22.80;100898.00;;;;2062593;28;20709;-55
2021/09/08 00:15:40;;;;;;;10.60;9.60;;;;;22.80;100900.00;;;;2062081;28;20230;-55
2021/09/08 00:16:41;;;;;;;10.87;9.77;;;;;22.80;100902.00;;;;2062874;28;20214;-56
2021/09/08 00:17:41;;;;;;;10.70;9.70;;;;;22.90;100898.00;;;;2062694;28;20215;-56
2021/09/08 00:18:42;;;;;;;11.13;10.13;;;;;22.90;100900.00;;;;2062248;28;20218;-55
2021/09/08 00:19:42;;;;;;;12.53;10.30;;;;;22.90;100907.00;;;;2062043;28;20564;-55
2021/09/08 00:20:42;;;;;;;10.40;9.40;;;;;22.90;100901.00;;;;2061667;28;20245;-55
2021/09/08 00:21:43;;;;;;;10.50;9.60;;;;;22.90;100905.00;;;;2062607;28;20677;-56
2021/09/08 00:22:44;;;;;;;10.07;9.13;;;;;22.90;100904.00;;;;2062695;28;20309;-55
2021/09/08 00:23:44;;;;;;;11.00;10.00;;;;;22.90;100896.00;;;;2062724;28;20338;-55
2021/09/08 00:24:44;;;;;;;10.40;9.47;;;;;22.90;100898.00;;;;2062743;28;20454;-56
2021/09/08 00:25:45;;;;;;;10.33;9.43;;;;;22.90;100905.00;;;;2062521;28;20214;-56
2021/09/08 00:26:45;;;;;;;11.60;10.37;;;;;22.90;100900.00;;;;2062368;28;20223;-56
2021/09/08 00:27:45;;;;;;;10.17;9.27;;;;;22.90;100896.00;;;;2062677;28;21147;-55
2021/09/08 00:28:46;;;;;;;10.80;9.70;;;;;22.90;100897.00;;;;2061424;28;20218;-55
2021/09/08 00:29:46;;;;;;;9.80;9.00;;;;;22.90;100895.00;;;;2062105;28;20266;-56
2021/09/08 00:30:46;;;;;;;10.60;9.60;;;;;22.90;100897.00;;;;2062296;28;20264;-56
2021/09/08 00:31:47;;;;;;;10.50;9.50;;;;;22.90;100893.00;;;;2062327;28;20230;-56
2021/09/08 00:32:47;;;;;;;10.30;9.30;;;;;22.90;100895.00;;;;2062671;28;20218;-56
2021/09/08 00:33:47;;;;;;;10.20;9.20;;;;;22.90;100897.00;;;;2062534;28;20290;-55
2021/09/08 00:34:48;;;;;;;10.30;9.20;;;;;22.90;100896.00;;;;2064408;28;20604;-56
2021/09/08 00:35:48;;;;;;;10.70;9.70;;;;;22.90;100888.00;;;;2070636;28;20229;-55
2021/09/08 00:36:49;;;;;;;10.97;9.93;;;;;22.90;100894.00;;;;2070212;28;20229;-55
2021/09/08 00:37:49;;;;;;;10.60;9.60;;;;;22.90;100887.00;;;;2069781;28;20222;-56
2021/09/08 00:38:49;;;;;;;10.60;9.53;;;;;22.90;100893.00;;;;2064279;28;20199;-56
2021/09/08 00:39:50;;;;;;;10.43;9.33;;;;;22.90;100885.00;;;;2061913;28;20221;-56
2021/09/08 00:40:53;;;;;;;9.67;8.87;;;;;22.90;100891.00;;;;2063032;28;20199;-56
2021/09/08 00:41:53;;;;;;;10.18;9.27;;;;;22.90;100889.00;;;;2062598;28;20298;-56
2021/09/08 00:42:54;;;;;;;9.10;8.30;;;;;22.90;100889.00;;;;2062572;28;20261;-56
2021/09/08 00:43:54;;;;;;;9.60;8.80;;;;;22.90;100884.00;;;;2062279;28;20219;-56
2021/09/08 00:44:54;;;;;;;10.27;9.40;;;;;22.90;100884.00;;;;2062577;28;20223;-56
2021/09/08 00:45:56;;;;;;;9.87;9.00;;;;;22.90;100885.00;;;;2061618;28;20223;-56
2021/09/08 00:46:56;;;;;;;9.90;8.80;;;;;22.90;100886.00;;;;2062557;28;20703;-56
2021/09/08 00:47:56;;;;;;;9.70;8.60;;;;;22.90;100887.00;;;;2062522;28;20214;-55
2021/09/08 00:48:57;;;;;;;9.20;8.30;;;;;22.90;100888.00;;;;2061225;28;20226;-56
2021/09/08 00:49:57;;;;;;;9.53;8.70;;;;;22.90;100893.00;;;;2062329;28;20227;-56
2021/09/08 00:50:57;;;;;;;9.43;8.60;;;;;22.90;100881.00;;;;2062692;28;20770;-55
2021/09/08 00:52:02;;;;;;;9.50;8.60;;;;;22.90;100888.00;;;;2062450;28;20635;-55
2021/09/08 00:53:02;;;;;;;10.20;9.23;;;;;22.90;100882.00;;;;2061086;28;20219;-56
2021/09/08 00:54:11;;;;;;;10.27;9.37;;;;;22.90;100883.00;;;;2060766;28;20749;-55
2021/09/08 00:55:11;;;;;;;9.85;8.95;;;;;22.90;100886.00;;;;2061083;28;20214;-55
2021/09/08 00:56:13;;;;;;;9.23;8.43;;;;;22.80;100882.00;;;;2061204;28;20298;-57
2021/09/08 00:57:14;;;;;;;10.00;9.10;;;;;22.90;100882.00;;;;2059709;28;20638;-56
2021/09/08 00:58:14;;;;;;;9.30;8.50;;;;;22.90;100888.00;;;;2061734;28;20222;-55
2021/09/08 00:59:15;;;;;;;9.53;8.63;;;;;22.80;100884.00;;;;2060580;28;20553;-56
2021/09/08 01:00:15;;;;;;;8.87;8.03;;;;;22.80;100889.00;;;;2062510;28;20771;-56
2021/09/08 01:01:16;;;;;;;9.70;8.80;;;;;22.90;100880.00;;;;2065895;28;20237;-56
2021/09/08 01:02:16;;;;;;;9.73;8.73;;;;;22.90;100883.00;;;;2069845;28;20217;-55
2021/09/08 01:03:16;;;;;;;8.80;8.00;;;;;22.90;100888.00;;;;2069942;28;20670;-56
2021/09/08 01:04:17;;;;;;;10.63;9.60;;;;;22.90;100885.00;;;;2069486;28;20635;-56
2021/09/08 01:05:17;;;;;;;9.10;8.30;;;;;22.90;100887.00;;;;2070032;28;20202;-56
2021/09/08 01:06:18;;;;;;;9.57;8.67;;;;;22.90;100881.00;;;;2069974;28;20705;-55
2021/09/08 01:07:18;;;;;;;9.10;8.30;;;;;22.90;100884.00;;;;2061538;28;20207;-56
2021/09/08 01:08:18;;;;;;;9.00;8.20;;;;;22.80;100885.00;;;;2060827;28;20207;-55
2021/09/08 01:09:19;;;;;;;8.97;8.17;;;;;22.80;100888.00;;;;2068128;28;20392;-56
2021/09/08 01:10:19;;;;;;;9.90;9.00;;;;;22.80;100885.00;;;;2061614;28;20207;-55
2021/09/08 01:11:20;;;;;;;9.57;8.57;;;;;22.80;100886.00;;;;2062014;28;20222;-55
2021/09/08 01:12:20;;;;;;;9.02;7.95;;;;;22.80;100883.00;;;;2062383;28;20230;-56
2021/09/08 01:13:21;;;;;;;9.00;8.20;;;;;22.80;100880.00;;;;2062182;28;20203;-56
2021/09/08 01:14:21;;;;;;;9.40;8.60;;;;;22.80;100882.00;;;;2062458;28;20253;-56
2021/09/08 01:15:21;;;;;;;9.70;8.80;;;;;22.80;100881.00;;;;2062131;28;21301;-56
2021/09/08 01:16:22;;;;;;;8.40;7.70;;;;;22.80;100879.00;;;;2062208;28;20207;-55
2021/09/08 01:17:22;;;;;;;8.00;7.30;;;;;22.80;100882.00;;;;2051464;28;20219;-55
2021/09/08 01:18:23;;;;;;;8.60;7.90;;;;;22.80;100879.00;;;;2069354;28;20207;-56
2021/09/08 01:19:23;;;;;;;8.90;8.10;;;;;22.80;100880.00;;;;2071519;28;20213;-55
2021/09/08 01:20:24;;;;;;;8.87;8.07;;;;;22.80;100877.00;;;;2069374;28;20453;-55
2021/09/08 01:21:24;;;;;;;8.60;7.90;;;;;22.80;100873.00;;;;2068970;28;20250;-56
2021/09/08 01:22:28;;;;;;;9.60;8.70;;;;;22.80;100811.00;;;;2067502;28;20237;-56
2021/09/08 01:23:28;;;;;;;8.55;7.82;;;;;22.80;100878.00;;;;2070200;28;20686;-56
2021/09/08 01:24:29;;;;;;;8.73;7.93;;;;;22.80;100872.00;;;;2070536;28;20210;-56
2021/09/08 01:25:29;;;;;;;8.33;7.63;;;;;22.80;100867.00;;;;2070189;28;20305;-55
2021/09/08 01:26:29;;;;;;;8.77;7.97;;;;;22.80;100872.00;;;;2069760;28;20221;-56
2021/09/08 01:27:30;;;;;;;9.07;8.30;;;;;22.80;100869.00;;;;2069436;28;20222;-56
2021/09/08 01:28:30;;;;;;;8.97;8.17;;;;;22.80;100869.00;;;;2069968;28;20214;-55
2021/09/08 01:29:31;;;;;;;8.33;7.43;;;;;22.80;100869.00;;;;2066168;28;20747;-56
2021/09/08 01:30:31;;;;;;;8.33;7.60;;;;;22.80;100870.00;;;;2062010;28;20341;-55
2021/09/08 01:31:31;;;;;;;8.70;7.80;;;;;22.80;100868.00;;;;2061168;28;20222;-55
2021/09/08 01:32:33;;;;;;;9.53;8.63;;;;;22.80;100866.00;;;;2061650;28;20703;-56
2021/09/08 01:33:34;;;;;;;9.10;8.27;;;;;22.80;100868.00;;;;2062074;28;20714;-55
2021/09/08 01:34:34;;;;;;;8.27;7.57;;;;;22.80;100865.00;;;;2061951;28;20218;-55
2021/09/08 01:35:35;;;;;;;8.77;7.90;;;;;22.80;100860.00;;;;2069839;28;20563;-56
2021/09/08 01:36:39;;;;;;;8.80;7.90;;;;;22.80;100862.00;;;;2069799;28;20614;-56
2021/09/08 01:37:39;;;;;;;9.77;8.63;;;;;22.80;100862.00;;;;2065777;28;20643;-56
2021/09/08 01:38:40;;;;;;;9.17;8.37;;;;;22.80;100864.00;;;;2066123;28;20223;-55
2021/09/08 01:39:40;;;;;;;9.00;8.17;;;;;22.80;100864.00;;;;2060299;28;20680;-55
2021/09/08 01:40:40;;;;;;;8.70;8.00;;;;;22.80;100864.00;;;;2061626;28;20834;-56
2021/09/08 01:41:41;;;;;;;8.83;8.03;;;;;22.80;100861.00;;;;2061543;28;20234;-55
2021/09/08 01:42:41;;;;;;;8.70;8.00;;;;;22.80;100866.00;;;;2059662;28;20214;-56
2021/09/08 01:43:46;;;;;;;8.40;7.50;;;;;22.80;100860.00;;;;2061742;28;20301;-55
2021/09/08 01:44:46;;;;;;;8.93;8.10;;;;;22.80;100865.00;;;;2061784;28;20223;-56
2021/09/08 01:45:47;;;;;;;8.47;7.67;;;;;22.80;100863.00;;;;2061408;28;20211;-56
2021/09/08 01:46:49;;;;;;;8.50;7.70;;;;;22.80;100858.00;;;;2061361;28;20222;-55
2021/09/08 01:47:53;;;;;;;9.30;8.50;;;;;22.80;100860.00;;;;2059924;28;20238;-56
2021/09/08 01:48:53;;;;;;;8.50;7.70;;;;;22.80;100861.00;;;;2049822;28;20668;-55
2021/09/08 01:49:53;;;;;;;8.67;7.90;;;;;22.80;100856.00;;;;2061038;28;20258;-56
2021/09/08 01:50:54;;;;;;;8.37;7.53;;;;;22.80;100861.00;;;;2061702;28;20244;-56
2021/09/08 01:51:54;;;;;;;8.70;7.90;;;;;22.80;100861.00;;;;2058668;28;20306;-55
2021/09/08 01:52:54;;;;;;;8.23;7.53;;;;;22.80;100860.00;;;;2061754;28;20280;-55
2021/09/08 01:53:55;;;;;;;9.07;8.17;;;;;22.80;100861.00;;;;2061924;28;21146;-55
2021/09/08 01:54:55;;;;;;;8.63;7.83;;;;;22.80;100861.00;;;;2061622;28;21075;-56
2021/09/08 01:55:55;;;;;;;7.60;6.90;;;;;22.80;100859.00;;;;2062243;28;20325;-56
2021/09/08 01:56:56;;;;;;;8.70;7.90;;;;;22.80;100858.00;;;;2062095;28;20219;-56
2021/09/08 01:57:56;;;;;;;9.27;8.40;;;;;22.80;100863.00;;;;2066694;28;20574;-56
2021/09/08 01:58:56;;;;;;;7.90;7.30;;;;;22.80;100854.00;;;;2069203;28;20241;-56
2021/09/08 01:59:57;;;;;;;7.53;6.93;;;;;22.80;100852.00;;;;2070298;28;20217;-56
2021/09/08 02:00:57;;;;;;;8.40;7.60;;;;;22.80;100856.00;;;;2070171;28;20332;-55
2021/09/08 02:01:58;;;;;;;8.13;7.37;;;;;22.80;100856.00;;;;2070286;28;20241;-56
2021/09/08 02:02:58;;;;;;;9.03;8.23;;;;;22.80;100849.00;;;;2067631;28;21038;-56
2021/09/08 02:03:58;;;;;;;9.20;8.40;;;;;22.80;100854.00;;;;2061750;28;20618;-56
2021/09/08 02:04:59;;;;;;;9.70;7.60;;;;;22.80;100850.00;;;;2064194;28;20210;-55
2021/09/08 02:05:59;;;;;;;9.13;8.30;;;;;22.80;100854.00;;;;2063202;28;20265;-56
2021/09/08 02:07:00;;;;;;;8.30;7.60;;;;;22.80;100853.00;;;;2054841;28;20702;-55
2021/09/08 02:08:00;;;;;;;8.13;7.43;;;;;22.80;100853.00;;;;2072278;28;20218;-56
2021/09/08 02:09:00;;;;;;;8.07;7.37;;;;;22.80;100851.00;;;;2077558;28;20652;-56
2021/09/08 02:10:01;;;;;;;7.87;7.17;;;;;22.80;100843.00;;;;2071749;28;20342;-56
2021/09/08 02:11:01;;;;;;;8.67;7.90;;;;;22.80;100848.00;;;;2071442;28;20210;-56
2021/09/08 02:12:02;;;;;;;7.67;6.97;;;;;22.80;100855.00;;;;2069096;28;20697;-56
2021/09/08 02:13:04;;;;;;;8.63;7.83;;;;;22.80;100852.00;;;;2071148;28;20654;-56
2021/09/08 02:14:04;;;;;;;8.40;7.60;;;;;22.80;100855.00;;;;2064078;28;20222;-56
2021/09/08 02:15:05;;;;;;;8.10;7.40;;;;;22.80;100844.00;;;;2063828;28;20215;-55
2021/09/08 02:16:05;;;;;;;8.20;7.40;;;;;22.80;100836.00;;;;2063444;28;20306;-55
2021/09/08 02:17:06;;;;;;;8.00;7.30;;;;;22.80;100837.00;;;;2061295;28;20221;-55
2021/09/08 02:18:06;;;;;;;8.03;7.33;;;;;22.80;100837.00;;;;2063279;28;20223;-55
2021/09/08 02:19:06;;;;;;;7.77;7.07;;;;;22.80;100839.00;;;;2062487;28;20281;-56
2021/09/08 02:20:07;;;;;;;8.83;8.07;;;;;22.80;100832.00;;;;2069584;28;20210;-55
2021/09/08 02:21:08;;;;;;;8.53;7.73;;;;;22.80;100837.00;;;;2070914;28;20686;-55
2021/09/08 02:22:09;;;;;;;8.02;7.22;;;;;22.80;100827.00;;;;2071583;28;20216;-56
2021/09/08 02:23:09;;;;;;;8.23;7.50;;;;;22.80;100835.00;;;;2071789;28;20709;-55
2021/09/08 02:24:09;;;;;;;7.80;7.10;;;;;22.80;100848.00;;;;2071954;28;20207;-55
2021/09/08 02:25:10;;;;;;;8.20;7.50;;;;;22.70;100844.00;;;;2070459;28;20217;-56
2021/09/08 02:26:10;;;;;;;8.33;7.63;;;;;22.80;100828.00;;;;2071509;28;20209;-55
2021/09/08 02:27:11;;;;;;;8.03;7.30;;;;;22.80;100835.00;;;;2062809;28;20268;-55
2021/09/08 02:28:11;;;;;;;8.03;7.33;;;;;22.80;100828.00;;;;2063571;28;20211;-56
2021/09/08 02:29:12;;;;;;;8.90;8.10;;;;;22.70;100831.00;;;;2062298;28;20290;-56
2021/09/08 02:30:12;;;;;;;7.83;7.13;;;;;22.80;100836.00;;;;2063466;28;20207;-55
2021/09/08 02:31:13;;;;;;;7.63;6.93;;;;;22.80;100822.00;;;;2063361;28;20701;-55
2021/09/08 02:32:13;;;;;;;8.33;7.63;;;;;22.70;100827.00;;;;2062908;28;20215;-56
2021/09/08 02:33:16;;;;;;;8.33;7.53;;;;;22.80;100824.00;;;;2063535;28;20583;-56
2021/09/08 02:34:17;;;;;;;8.45;7.75;;;;;22.70;100827.00;;;;2065446;28;20214;-55
2021/09/08 02:35:17;;;;;;;8.77;7.83;;;;;22.70;100828.00;;;;2063994;28;20281;-56
2021/09/08 02:36:20;;;;;;;8.00;7.20;;;;;22.80;100823.00;;;;2063504;28;20234;-56
2021/09/08 02:37:20;;;;;;;7.65;7.03;;;;;22.70;100824.00;;;;2063286;28;20306;-56
2021/09/08 02:38:21;;;;;;;7.40;6.70;;;;;22.70;100824.00;;;;2062761;28;20226;-56
2021/09/08 02:39:21;;;;;;;8.20;7.50;;;;;22.70;100828.00;;;;2061545;28;20269;-56
2021/09/08 02:40:21;;;;;;;9.67;8.80;;;;;22.70;100818.00;;;;2064452;28;20234;-55
2021/09/08 02:41:23;;;;;;;7.57;6.97;;;;;22.70;100825.00;;;;2071514;28;20272;-56
2021/09/08 02:42:24;;;;;;;7.63;6.93;;;;;22.70;100817.00;;;;2070561;28;20213;-56
2021/09/08 02:43:24;;;;;;;7.87;7.17;;;;;22.70;100819.00;;;;2070865;28;20229;-55
2021/09/08 02:44:24;;;;;;;8.40;7.70;;;;;22.70;100828.00;;;;2071576;28;20217;-56
2021/09/08 02:45:25;;;;;;;8.30;7.50;;;;;22.70;100825.00;;;;2071455;28;20721;-56
2021/09/08 02:46:25;;;;;;;7.77;7.17;;;;;22.70;100824.00;;;;2071285;28;20577;-55
2021/09/08 02:47:25;;;;;;;8.27;7.47;;;;;22.70;100820.00;;;;2071318;28;20384;-56
2021/09/08 02:48:26;;;;;;;8.37;7.67;;;;;22.70;100814.00;;;;2071506;28;20209;-56
2021/09/08 02:49:26;;;;;;;8.50;7.70;;;;;22.70;100823.00;;;;2070040;28;20222;-55
2021/09/08 02:50:26;;;;;;;7.53;6.93;;;;;22.70;100820.00;;;;2071444;28;20214;-55
2021/09/08 02:51:27;;;;;;;8.00;7.30;;;;;22.70;100815.00;;;;2071607;28;20221;-56
2021/09/08 02:52:27;;;;;;;7.83;7.13;;;;;22.70;100820.00;;;;2065217;28;20207;-56
2021/09/08 02:53:27;;;;;;;7.33;6.70;;;;;22.70;100821.00;;;;2063234;28;20215;-56
2021/09/08 02:54:28;;;;;;;7.57;6.97;;;;;22.70;100822.00;;;;2062770;28;20241;-55
2021/09/08 02:55:28;;;;;;;8.00;7.30;;;;;22.70;100815.00;;;;2063501;28;20215;-55
2021/09/08 02:56:28;;;;;;;7.80;7.10;;;;;22.70;100819.00;;;;2067718;28;20210;-55
2021/09/08 02:57:29;;;;;;;7.50;6.90;;;;;22.70;100815.00;;;;2071268;28;20679;-55
2021/09/08 02:58:29;;;;;;;7.87;7.17;;;;;22.70;100812.00;;;;2071379;28;20562;-55
2021/09/08 02:59:30;;;;;;;7.43;6.83;;;;;22.70;100813.00;;;;2069961;28;20221;-55
2021/09/08 03:00:30;;;;;;;7.50;6.80;;;;;22.70;100816.00;;;;2071330;28;20645;-55
2021/09/08 03:01:30;;;;;;;8.63;7.93;;;;;22.70;100808.00;;;;2070679;28;20218;-55
2021/09/08 03:02:31;;;;;;;8.53;7.17;;;;;22.70;100821.00;;;;2071518;28;20293;-56
2021/09/08 03:03:31;;;;;;;7.97;7.27;;;;;22.70;100807.00;;;;2071514;28;21016;-55
2021/09/08 03:04:31;;;;;;;7.53;6.93;;;;;22.70;100812.00;;;;2068380;28;20210;-56
2021/09/08 03:05:32;;;;;;;8.23;7.50;;;;;22.70;100815.00;;;;2063192;28;20219;-56
2021/09/08 03:06:32;;;;;;;7.10;6.50;;;;;22.70;100815.00;;;;2062972;28;20591;-55
2021/09/08 03:07:33;;;;;;;8.00;7.30;;;;;22.70;100815.00;;;;2063579;28;20265;-58
2021/09/08 03:08:33;;;;;;;8.37;7.37;;;;;22.70;100819.00;;;;2071433;28;20271;-57
2021/09/08 03:09:33;;;;;;;7.33;6.70;;;;;22.70;100815.00;;;;2077918;28;20228;-55
2021/09/08 03:10:35;;;;;;;7.60;6.90;;;;;22.70;100811.00;;;;2071071;28;20618;-57
2021/09/08 03:11:35;;;;;;;8.02;7.22;;;;;22.70;100812.00;;;;2070650;28;20233;-55
2021/09/08 03:12:36;;;;;;;8.07;7.30;;;;;22.70;100815.00;;;;2070828;28;20300;-55
2021/09/08 03:13:36;;;;;;;7.80;7.10;;;;;22.70;100820.00;;;;2070710;28;20222;-56
2021/09/08 03:14:37;;;;;;;7.10;6.50;;;;;22.70;100814.00;;;;2071120;28;20214;-55
2021/09/08 03:15:38;;;;;;;8.00;7.37;;;;;22.70;100813.00;;;;2071363;28;20214;-56
2021/09/08 03:16:38;;;;;;;8.43;7.72;;;;;22.70;100820.00;;;;2070962;28;20276;-55
2021/09/08 03:17:38;;;;;;;7.50;6.83;;;;;22.70;100829.00;;;;2070782;28;20202;-55
2021/09/08 03:18:39;;;;;;;8.03;7.33;;;;;22.70;100819.00;;;;2071200;28;20222;-56
2021/09/08 03:19:39;;;;;;;7.27;6.67;;;;;22.70;100818.00;;;;2070197;28;20218;-56
2021/09/08 03:20:39;;;;;;;7.40;6.70;;;;;22.70;100809.00;;;;2070876;28;20629;-56
2021/09/08 03:21:40;;;;;;;7.60;6.90;;;;;22.70;100807.00;;;;2071148;28;20690;-55
2021/09/08 03:22:40;;;;;;;7.33;6.73;;;;;22.70;100815.00;;;;2071385;28;20313;-55
2021/09/08 03:23:40;;;;;;;7.30;6.70;;;;;22.70;100814.00;;;;2070938;28;20226;-55
2021/09/08 03:24:41;;;;;;;8.37;7.67;;;;;22.70;100818.00;;;;2071340;28;20229;-56
2021/09/08 03:25:41;;;;;;;8.00;7.30;;;;;22.70;100809.00;;;;2071394;28;20218;-55
2021/09/08 03:26:41;;;;;;;8.63;7.83;;;;;22.70;100812.00;;;;2071243;28;20233;-56
2021/09/08 03:27:42;;;;;;;8.20;7.50;;;;;22.70;100810.00;;;;2071223;28;20768;-56
2021/09/08 03:28:42;;;;;;;8.20;7.50;;;;;22.70;100807.00;;;;2070858;28;20218;-56
2021/09/08 03:29:42;;;;;;;7.70;7.00;;;;;22.70;100798.00;;;;2070758;28;20210;-55
2021/09/08 03:30:43;;;;;;;8.13;7.43;;;;;22.70;100814.00;;;;2070711;28;20222;-56
2021/09/08 03:31:43;;;;;;;8.10;7.40;;;;;22.70;100806.00;;;;2070698;28;20222;-56
2021/09/08 03:32:43;;;;;;;7.70;7.00;;;;;22.70;100804.00;;;;2071060;28;20678;-55
2021/09/08 03:33:44;;;;;;;7.90;7.17;;;;;22.60;100806.00;;;;2071296;28;20645;-56
2021/09/08 03:34:44;;;;;;;7.80;7.10;;;;;22.70;100808.00;;;;2066596;28;20265;-55
2021/09/08 03:35:45;;;;;;;8.27;7.47;;;;;22.70;100812.00;;;;2065187;28;20226;-55
2021/09/08 03:36:45;;;;;;;7.90;7.30;;;;;22.70;100804.00;;;;2062641;28;20270;-55
2021/09/08 03:37:45;;;;;;;8.33;6.90;;;;;22.60;100808.00;;;;2062768;28;20563;-55
2021/09/08 03:38:46;;;;;;;7.93;7.30;;;;;22.70;100807.00;;;;2061654;28;20215;-55
2021/09/08 03:39:46;;;;;;;7.73;7.07;;;;;22.70;100805.00;;;;2062463;28;20222;-56
2021/09/08 03:40:46;;;;;;;8.27;7.57;;;;;22.60;100799.00;;;;2063804;28;20298;-55
2021/09/08 03:41:47;;;;;;;7.70;7.00;;;;;22.60;100800.00;;;;2071145;28;20313;-55
2021/09/08 03:42:47;;;;;;;7.77;7.07;;;;;22.60;100811.00;;;;2071065;28;20616;-55
2021/09/08 03:43:47;;;;;;;7.53;6.83;;;;;22.60;100809.00;;;;2070346;28;20219;-55
2021/09/08 03:44:48;;;;;;;8.20;7.50;;;;;22.70;100803.00;;;;2070146;28;20424;-56
2021/09/08 03:45:48;;;;;;;8.30;7.20;;;;;22.70;100797.00;;;;2070725;28;20239;-56
2021/09/08 03:46:48;;;;;;;8.00;7.30;;;;;22.60;100804.00;;;;2070168;28;20293;-56
2021/09/08 03:47:49;;;;;;;7.47;6.77;;;;;22.70;100798.00;;;;2070208;28;20230;-55
2021/09/08 03:48:49;;;;;;;7.60;6.90;;;;;22.60;100803.00;;;;2069003;28;20257;-56
2021/09/08 03:49:49;;;;;;;7.97;7.27;;;;;22.60;100801.00;;;;2070360;28;20213;-55
2021/09/08 03:50:50;;;;;;;8.10;7.40;;;;;22.60;100806.00;;;;2070668;28;20677;-55
2021/09/08 03:51:50;;;;;;;7.90;7.10;;;;;22.70;100802.00;;;;2065001;28;20219;-56
2021/09/08 03:52:51;;;;;;;7.57;6.83;;;;;22.60;100810.00;;;;2068353;28;20218;-56
2021/09/08 03:53:51;;;;;;;8.37;7.57;;;;;22.60;100803.00;;;;2070417;28;20213;-56
2021/09/08 03:54:51;;;;;;;7.40;6.80;;;;;22.60;100795.00;;;;2070416;28;20321;-55
2021/09/08 03:55:52;;;;;;;8.57;7.77;;;;;22.60;100810.00;;;;2070395;28;20265;-55
2021/09/08 03:56:52;;;;;;;7.67;6.97;;;;;22.60;100794.00;;;;2070645;28;20199;-55
2021/09/08 03:57:53;;;;;;;7.80;7.10;;;;;22.60;100796.00;;;;2070563;28;20900;-56
2021/09/08 03:58:53;;;;;;;7.20;6.50;;;;;22.60;100797.00;;;;2069496;28;20215;-56
2021/09/08 03:59:54;;;;;;;7.63;6.93;;;;;22.60;100802.00;;;;2070495;28;20210;-55
2021/09/08 04:00:54;;;;;;;8.37;7.60;;;;;22.60;100797.00;;;;2070481;28;20211;-56
2021/09/08 04:01:54;;;;;;;6.70;6.10;;;;;22.60;100805.00;;;;2067930;28;20229;-55
2021/09/08 04:02:55;;;;;;;8.50;7.70;;;;;22.70;100794.00;;;;2062371;28;20218;-55
2021/09/08 04:03:55;;;;;;;7.63;7.03;;;;;22.60;100797.00;;;;2062365;28;20219;-56
2021/09/08 04:04:58;;;;;;;7.80;7.10;;;;;22.60;100789.00;;;;2065246;28;21042;-55
2021/09/08 04:05:58;;;;;;;6.68;6.07;;;;;22.60;100791.00;;;;2062220;28;20215;-55
2021/09/08 04:06:58;;;;;;;7.70;7.00;;;;;22.60;100794.00;;;;2062849;28;20211;-56
2021/09/08 04:07:59;;;;;;;8.37;7.67;;;;;22.60;100792.00;;;;2070943;28;20210;-56
2021/09/08 04:08:59;;;;;;;8.37;7.67;;;;;22.60;100793.00;;;;2069286;28;20256;-55
2021/09/08 04:09:59;;;;;;;8.27;7.57;;;;;22.60;100797.00;;;;2064946;28;20261;-56
2021/09/08 04:11:00;;;;;;;7.87;7.20;;;;;22.60;100799.00;;;;2062693;28;20215;-56
2021/09/08 04:12:00;;;;;;;10.40;7.50;;;;;22.60;100795.00;;;;2062838;28;20688;-54
2021/09/08 04:13:00;;;;;;;8.20;7.40;;;;;22.50;100800.00;;;;2066027;28;20214;-55
2021/09/08 04:14:01;;;;;;;8.07;7.27;;;;;22.50;100794.00;;;;2070651;28;20218;-55
2021/09/08 04:15:01;;;;;;;8.13;7.20;;;;;22.50;100792.00;;;;2070561;28;20736;-55
2021/09/08 04:16:02;;;;;;;12.23;7.57;;;;;22.50;100795.00;;;;2070101;28;20218;-55
2021/09/08 04:17:02;;;;;;;8.67;7.90;;;;;22.60;100793.00;;;;2069787;28;20268;-55
2021/09/08 04:18:02;;;;;;;7.80;7.07;;;;;22.60;100785.00;;;;2070609;28;20213;-55
2021/09/08 04:19:03;;;;;;;7.87;7.17;;;;;22.60;100788.00;;;;2069753;28;20218;-55
2021/09/08 04:20:04;;;;;;;7.50;6.80;;;;;22.70;100795.00;;;;2057503;28;20226;-55
2021/09/08 04:21:04;;;;;;;7.27;6.57;;;;;22.70;100792.00;;;;2070079;28;20214;-55
2021/09/08 04:22:04;;;;;;;7.93;7.10;;;;;22.70;100792.00;;;;2066802;28;20450;-55
2021/09/08 04:23:05;;;;;;;7.30;6.70;;;;;22.70;100789.00;;;;2062956;28;20222;-54
2021/09/08 04:24:05;;;;;;;8.03;7.30;;;;;22.40;100764.00;;;;2058863;28;20223;-55
2021/09/08 04:25:06;;;;;;;9.93;6.50;;;;;22.70;100787.00;;;;2056791;28;20222;-55
2021/09/08 04:26:06;;;;;;;7.57;6.87;;;;;22.70;100788.00;;;;2062559;28;20220;-55
2021/09/08 04:27:06;;;;;;;7.93;7.13;;;;;22.70;100781.00;;;;2062632;28;20230;-57
2021/09/08 04:28:07;;;;;;;8.57;7.30;;;;;22.70;100795.00;;;;2061942;28;20789;-55
2021/09/08 04:29:07;;;;;;;7.60;6.20;;;;;22.80;100798.00;;;;2059934;28;20221;-56
2021/09/08 04:30:08;;;;;;;7.33;6.53;;;;;22.80;100796.00;;;;2065279;28;20243;-55
2021/09/08 04:31:08;;;;;;;7.20;6.60;;;;;22.70;100796.00;;;;2070114;28;20221;-55
2021/09/08 04:32:08;;;;;;;10.97;7.27;;;;;22.70;100790.00;;;;2070343;28;20261;-56
2021/09/08 04:33:09;;;;;;;8.50;7.10;;;;;22.70;100785.00;;;;2070386;28;20301;-55
2021/09/08 04:34:09;;;;;;;7.73;6.80;;;;;22.70;100788.00;;;;2069247;28;20213;-55
2021/09/08 04:35:09;;;;;;;9.47;7.13;;;;;22.70;100786.00;;;;2063707;28;20301;-55
2021/09/08 04:36:10;;;;;;;8.10;7.30;;;;;22.70;100785.00;;;;2058384;28;20242;-55
2021/09/08 04:37:10;;;;;;;8.60;7.23;;;;;22.70;100788.00;;;;2062077;28;20747;-56
2021/09/08 04:38:11;;;;;;;9.27;7.60;;;;;22.60;100797.00;;;;2061757;28;20215;-56
2021/09/08 04:39:11;;;;;;;8.10;7.30;;;;;22.60;100783.00;;;;2061478;28;20298;-55
2021/09/08 04:40:12;;;;;;;7.83;7.10;;;;;22.60;100791.00;;;;2062702;28;20214;-56
2021/09/08 04:41:12;;;;;;;7.77;6.80;;;;;22.60;100786.00;;;;2062536;28;20211;-56
2021/09/08 04:42:13;;;;;;;8.20;7.40;;;;;22.60;100775.00;;;;2062563;28;21160;-56
2021/09/08 04:43:13;;;;;;;7.67;6.87;;;;;22.60;100782.00;;;;2062721;28;20215;-56
2021/09/08 04:44:14;;;;;;;8.13;7.33;;;;;22.60;100780.00;;;;2062368;28;20269;-55
2021/09/08 04:45:14;;;;;;;8.37;7.53;;;;;22.60;100772.00;;;;2061866;28;20230;-56
2021/09/08 04:46:14;;;;;;;8.33;7.60;;;;;22.60;100785.00;;;;2062359;28;20586;-55
2021/09/08 04:47:15;;;;;;;8.30;7.20;;;;;22.60;100792.00;;;;2062509;28;20223;-55
2021/09/08 04:48:15;;;;;;;7.00;6.37;;;;;22.60;100785.00;;;;2061484;28;20215;-56
2021/09/08 04:49:15;;;;;;;8.30;7.53;;;;;22.60;100778.00;;;;2060366;28;20301;-55
2021/09/08 04:50:16;;;;;;;8.27;7.50;;;;;22.60;100777.00;;;;2062355;28;20214;-56
2021/09/08 04:51:16;;;;;;;8.50;7.50;;;;;22.60;100779.00;;;;2057410;28;20269;-56
2021/09/08 04:52:17;;;;;;;8.10;7.40;;;;;22.60;100781.00;;;;2059840;28;20218;-56
2021/09/08 04:53:17;;;;;;;8.53;7.73;;;;;22.60;100779.00;;;;2060440;28;20345;-56
2021/09/08 04:54:17;;;;;;;7.77;7.07;;;;;22.60;100781.00;;;;2055256;28;20218;-56
2021/09/08 04:55:18;;;;;;;7.60;7.00;;;;;22.60;100785.00;;;;2061162;28;20799;-59
2021/09/08 04:56:18;;;;;;;8.87;7.70;;;;;22.60;100785.00;;;;2060998;28;20273;-57
2021/09/08 04:57:18;;;;;;;7.73;7.00;;;;;22.60;100786.00;;;;2060738;28;20301;-57
2021/09/08 04:58:19;;;;;;;8.60;7.60;;;;;22.60;100787.00;;;;2060838;28;20286;-56